McGrath, Alaska
Current Conditions -  °F | °C
As of 9:53 AM on Sunday 21 Dec 2014 (Local Time) from PAMC Reporting Station
Clear Clear  
Wind Chill: -15°   Ceiling: Unl
Heat Index: -15°   Visibility: 10mi
Dew Point: -20°   Wind: 0mph
Humidity: 78%   Direction: NA
Pressure: 29.3"   Gusts: NA
Location:  62.96°N, 155.6°W
Report Text: PAMC 211853Z 00000KT 10SM CLR M26/M29 A2930 RMK AO2 SLP935 T12611289
Loading
Personal Weather Stations






























Interactive Weather Map New forecast layout! Learn more

10-Day Weather Forecast

Advertisements
Track Severe Weather on mobile